Algodones, New Mexico
Current Conditions -  °F | °C
As of 6:52 AM on Saturday 25 Oct 2014 (Local Time) from KABQ Reporting Station
Clear Clear  
Wind Chill: 52°   Ceiling: Unl
Heat Index: 52°   Visibility: 10mi
Dew Point: 26°   Wind: 8mph
Humidity: 37%   Direction: 10°N
Pressure: 30.29"   Gusts: NA
Location:  35.38°N, 106.48°W
Report Text: KABQ 251252Z 01007KT 10SM CLR 11/M03 A3029 RMK AO2 SLP202 T01111033
Loading
Personal Weather Stations






























Interactive Weather Map
Tropical Storm Tracking
New forecast layout! Learn more

10-Day Weather Forecast

Advertisements
Track Severe Weather on mobile